sensor_id;sensor_type;location;lat;lon;timestamp;P1;durP1;ratioP1;P2;durP2;ratioP2
5343;SDS011;2694;48.950;8.970;2022-11-18T00:00:47;1.08;;;0.50;;
5343;SDS011;2694;48.950;8.970;2022-11-18T00:03:16;2.60;;;0.50;;
5343;SDS011;2694;48.950;8.970;2022-11-18T00:05:43;1.30;;;0.40;;
5343;SDS011;2694;48.950;8.970;2022-11-18T00:08:19;1.10;;;0.30;;
5343;SDS011;2694;48.950;8.970;2022-11-18T00:10:48;1.80;;;0.40;;
5343;SDS011;2694;48.950;8.970;2022-11-18T00:13:15;1.40;;;0.50;;
5343;SDS011;2694;48.950;8.970;2022-11-18T00:16:00;1.10;;;0.30;;
5343;SDS011;2694;48.950;8.970;2022-11-18T00:18:28;0.70;;;0.40;;
5343;SDS011;2694;48.950;8.970;2022-11-18T00:20:59;2.50;;;0.50;;
5343;SDS011;2694;48.950;8.970;2022-11-18T00:23:27;0.80;;;0.40;;
5343;SDS011;2694;48.950;8.970;2022-11-18T00:25:58;2.97;;;1.67;;
5343;SDS011;2694;48.950;8.970;2022-11-18T00:28:28;2.10;;;0.80;;
5343;SDS011;2694;48.950;8.970;2022-11-18T00:30:59;2.50;;;0.90;;
5343;SDS011;2694;48.950;8.970;2022-11-18T00:33:28;1.98;;;0.40;;
5343;SDS011;2694;48.950;8.970;2022-11-18T00:35:55;2.00;;;0.60;;
5343;SDS011;2694;48.950;8.970;2022-11-18T00:38:23;1.83;;;0.40;;
5343;SDS011;2694;48.950;8.970;2022-11-18T00:40:58;1.27;;;0.40;;
5343;SDS011;2694;48.950;8.970;2022-11-18T00:43:26;1.92;;;0.63;;
5343;SDS011;2694;48.950;8.970;2022-11-18T00:45:52;2.10;;;0.50;;
5343;SDS011;2694;48.950;8.970;2022-11-18T00:48:19;2.70;;;0.50;;
5343;SDS011;2694;48.950;8.970;2022-11-18T00:50:47;2.50;;;0.50;;
5343;SDS011;2694;48.950;8.970;2022-11-18T00:53:14;3.00;;;0.50;;
5343;SDS011;2694;48.950;8.970;2022-11-18T00:55:42;2.85;;;0.90;;
5343;SDS011;2694;48.950;8.970;2022-11-18T00:58:11;1.50;;;0.40;;
5343;SDS011;2694;48.950;8.970;2022-11-18T01:00:39;2.40;;;0.60;;
5343;SDS011;2694;48.950;8.970;2022-11-18T01:03:07;2.42;;;0.50;;
5343;SDS011;2694;48.950;8.970;2022-11-18T01:05:35;1.48;;;0.60;;
5343;SDS011;2694;48.950;8.970;2022-11-18T01:08:02;1.98;;;0.38;;
5343;SDS011;2694;48.950;8.970;2022-11-18T01:10:30;1.48;;;0.40;;
5343;SDS011;2694;48.950;8.970;2022-11-18T01:12:58;1.40;;;0.50;;
5343;SDS011;2694;48.950;8.970;2022-11-18T01:15:44;1.40;;;0.40;;
5343;SDS011;2694;48.950;8.970;2022-11-18T01:18:13;3.50;;;0.98;;
5343;SDS011;2694;48.950;8.970;2022-11-18T01:20:40;1.83;;;0.60;;
5343;SDS011;2694;48.950;8.970;2022-11-18T01:23:08;1.35;;;0.60;;
5343;SDS011;2694;48.950;8.970;2022-11-18T01:25:35;0.82;;;0.50;;
5343;SDS011;2694;48.950;8.970;2022-11-18T01:28:03;0.83;;;0.50;;
5343;SDS011;2694;48.950;8.970;2022-11-18T01:30:31;2.53;;;0.60;;
5343;SDS011;2694;48.950;8.970;2022-11-18T01:33:01;1.30;;;0.50;;
5343;SDS011;2694;48.950;8.970;2022-11-18T01:35:32;2.03;;;0.50;;
5343;SDS011;2694;48.950;8.970;2022-11-18T01:38:00;1.45;;;0.50;;
5343;SDS011;2694;48.950;8.970;2022-11-18T01:40:27;1.48;;;0.50;;
5343;SDS011;2694;48.950;8.970;2022-11-18T01:42:55;1.42;;;0.50;;
5343;SDS011;2694;48.950;8.970;2022-11-18T01:45:26;3.10;;;0.80;;
5343;SDS011;2694;48.950;8.970;2022-11-18T01:47:58;1.25;;;0.50;;
5343;SDS011;2694;48.950;8.970;2022-11-18T01:50:30;2.20;;;0.60;;
5343;SDS011;2694;48.950;8.970;2022-11-18T01:53:02;1.35;;;0.52;;
5343;SDS011;2694;48.950;8.970;2022-11-18T01:55:34;3.55;;;0.50;;
5343;SDS011;2694;48.950;8.970;2022-11-18T01:58:07;1.52;;;0.60;;
5343;SDS011;2694;48.950;8.970;2022-11-18T02:00:38;1.50;;;0.70;;
5343;SDS011;2694;48.950;8.970;2022-11-18T02:03:07;3.00;;;0.50;;
5343;SDS011;2694;48.950;8.970;2022-11-18T02:05:34;2.88;;;0.70;;
5343;SDS011;2694;48.950;8.970;2022-11-18T02:08:03;3.00;;;1.10;;
5343;SDS011;2694;48.950;8.970;2022-11-18T02:10:33;1.70;;;1.03;;
5343;SDS011;2694;48.950;8.970;2022-11-18T02:13:00;2.72;;;1.00;;
5343;SDS011;2694;48.950;8.970;2022-11-18T02:15:32;5.97;;;2.45;;
5343;SDS011;2694;48.950;8.970;2022-11-18T02:18:09;6.93;;;2.58;;
5343;SDS011;2694;48.950;8.970;2022-11-18T02:20:43;4.10;;;0.80;;
5343;SDS011;2694;48.950;8.970;2022-11-18T02:23:20;4.53;;;0.80;;
5343;SDS011;2694;48.950;8.970;2022-11-18T02:26:25;4.70;;;0.60;;
5343;SDS011;2694;48.950;8.970;2022-11-18T02:29:15;3.03;;;0.50;;
5343;SDS011;2694;48.950;8.970;2022-11-18T02:31:45;2.40;;;0.60;;
5343;SDS011;2694;48.950;8.970;2022-11-18T02:34:21;3.72;;;0.70;;
5343;SDS011;2694;48.950;8.970;2022-11-18T02:36:57;1.10;;;0.47;;
5343;SDS011;2694;48.950;8.970;2022-11-18T02:39:30;1.63;;;0.70;;
5343;SDS011;2694;48.950;8.970;2022-11-18T02:42:00;1.80;;;0.70;;
5343;SDS011;2694;48.950;8.970;2022-11-18T02:44:32;5.35;;;0.60;;
5343;SDS011;2694;48.950;8.970;2022-11-18T02:47:02;1.80;;;0.70;;
5343;SDS011;2694;48.950;8.970;2022-11-18T02:49:34;3.65;;;0.60;;
5343;SDS011;2694;48.950;8.970;2022-11-18T02:52:04;3.15;;;0.90;;
5343;SDS011;2694;48.950;8.970;2022-11-18T02:54:33;1.88;;;0.90;;
5343;SDS011;2694;48.950;8.970;2022-11-18T02:57:02;2.15;;;0.60;;
5343;SDS011;2694;48.950;8.970;2022-11-18T02:59:32;3.42;;;0.85;;
5343;SDS011;2694;48.950;8.970;2022-11-18T03:02:03;2.38;;;0.60;;
5343;SDS011;2694;48.950;8.970;2022-11-18T03:04:30;2.10;;;0.80;;
5343;SDS011;2694;48.950;8.970;2022-11-18T03:07:10;2.03;;;0.70;;
5343;SDS011;2694;48.950;8.970;2022-11-18T03:09:45;1.60;;;0.70;;
5343;SDS011;2694;48.950;8.970;2022-11-18T03:12:18;2.67;;;0.50;;
5343;SDS011;2694;48.950;8.970;2022-11-18T03:15:00;2.00;;;0.40;;
5343;SDS011;2694;48.950;8.970;2022-11-18T03:17:38;2.00;;;0.50;;
5343;SDS011;2694;48.950;8.970;2022-11-18T03:20:13;2.58;;;0.95;;
5343;SDS011;2694;48.950;8.970;2022-11-18T03:22:46;4.75;;;1.40;;
5343;SDS011;2694;48.950;8.970;2022-11-18T03:25:20;4.25;;;2.10;;
5343;SDS011;2694;48.950;8.970;2022-11-18T03:27:55;7.05;;;2.60;;
5343;SDS011;2694;48.950;8.970;2022-11-18T03:30:32;32.90;;;14.57;;
5343;SDS011;2694;48.950;8.970;2022-11-18T03:33:03;10.30;;;3.28;;
5343;SDS011;2694;48.950;8.970;2022-11-18T03:35:34;2.25;;;0.73;;
5343;SDS011;2694;48.950;8.970;2022-11-18T03:38:06;1.70;;;0.40;;
5343;SDS011;2694;48.950;8.970;2022-11-18T03:40:37;3.00;;;0.50;;
5343;SDS011;2694;48.950;8.970;2022-11-18T03:43:10;2.08;;;0.60;;
5343;SDS011;2694;48.950;8.970;2022-11-18T03:45:43;1.45;;;0.63;;
5343;SDS011;2694;48.950;8.970;2022-11-18T03:48:14;4.20;;;0.60;;
5343;SDS011;2694;48.950;8.970;2022-11-18T03:50:44;1.90;;;0.40;;
5343;SDS011;2694;48.950;8.970;2022-11-18T03:53:13;1.60;;;0.40;;
5343;SDS011;2694;48.950;8.970;2022-11-18T03:55:43;2.80;;;0.40;;
5343;SDS011;2694;48.950;8.970;2022-11-18T03:58:17;1.00;;;0.30;;
5343;SDS011;2694;48.950;8.970;2022-11-18T04:00:51;1.20;;;0.40;;
5343;SDS011;2694;48.950;8.970;2022-11-18T04:03:23;1.45;;;0.30;;
5343;SDS011;2694;48.950;8.970;2022-11-18T04:05:51;1.20;;;0.30;;
5343;SDS011;2694;48.950;8.970;2022-11-18T04:08:26;1.00;;;0.30;;
5343;SDS011;2694;48.950;8.970;2022-11-18T04:11:00;0.90;;;0.20;;
5343;SDS011;2694;48.950;8.970;2022-11-18T04:13:32;0.40;;;0.20;;
5343;SDS011;2694;48.950;8.970;2022-11-18T04:16:04;2.40;;;0.20;;
5343;SDS011;2694;48.950;8.970;2022-11-18T04:18:33;2.05;;;1.65;;
5343;SDS011;2694;48.950;8.970;2022-11-18T04:21:01;3.63;;;2.00;;
5343;SDS011;2694;48.950;8.970;2022-11-18T04:23:28;1.40;;;0.40;;
5343;SDS011;2694;48.950;8.970;2022-11-18T04:25:55;0.80;;;0.30;;
5343;SDS011;2694;48.950;8.970;2022-11-18T04:28:22;2.20;;;0.30;;
5343;SDS011;2694;48.950;8.970;2022-11-18T04:30:50;4.63;;;0.28;;
5343;SDS011;2694;48.950;8.970;2022-11-18T04:33:19;1.45;;;0.30;;
5343;SDS011;2694;48.950;8.970;2022-11-18T04:35:46;0.60;;;0.30;;
5343;SDS011;2694;48.950;8.970;2022-11-18T04:38:13;0.50;;;0.20;;
5343;SDS011;2694;48.950;8.970;2022-11-18T04:40:40;3.80;;;0.30;;
5343;SDS011;2694;48.950;8.970;2022-11-18T04:43:07;1.80;;;0.43;;
5343;SDS011;2694;48.950;8.970;2022-11-18T04:45:34;1.90;;;0.40;;
5343;SDS011;2694;48.950;8.970;2022-11-18T04:48:01;2.08;;;0.30;;
5343;SDS011;2694;48.950;8.970;2022-11-18T04:50:30;0.70;;;0.30;;
5343;SDS011;2694;48.950;8.970;2022-11-18T04:52:58;1.30;;;0.25;;
5343;SDS011;2694;48.950;8.970;2022-11-18T04:55:25;0.70;;;0.30;;
5343;SDS011;2694;48.950;8.970;2022-11-18T04:57:52;1.50;;;0.30;;
5343;SDS011;2694;48.950;8.970;2022-11-18T05:00:20;0.43;;;0.20;;
5343;SDS011;2694;48.950;8.970;2022-11-18T05:02:47;2.13;;;0.43;;
5343;SDS011;2694;48.950;8.970;2022-11-18T05:05:14;0.50;;;0.30;;
5343;SDS011;2694;48.950;8.970;2022-11-18T05:07:43;2.08;;;0.43;;
5343;SDS011;2694;48.950;8.970;2022-11-18T05:10:11;1.70;;;0.40;;
5343;SDS011;2694;48.950;8.970;2022-11-18T05:12:38;1.80;;;0.40;;
5343;SDS011;2694;48.950;8.970;2022-11-18T05:15:13;0.73;;;0.30;;
5343;SDS011;2694;48.950;8.970;2022-11-18T05:17:42;1.85;;;0.40;;
5343;SDS011;2694;48.950;8.970;2022-11-18T05:20:10;2.78;;;0.90;;
5343;SDS011;2694;48.950;8.970;2022-11-18T05:22:38;0.60;;;0.50;;
5343;SDS011;2694;48.950;8.970;2022-11-18T05:25:08;1.17;;;0.30;;
5343;SDS011;2694;48.950;8.970;2022-11-18T05:27:36;0.50;;;0.40;;
5343;SDS011;2694;48.950;8.970;2022-11-18T05:30:04;0.60;;;0.30;;
5343;SDS011;2694;48.950;8.970;2022-11-18T05:32:31;1.10;;;0.20;;
5343;SDS011;2694;48.950;8.970;2022-11-18T05:34:59;1.83;;;0.30;;
5343;SDS011;2694;48.950;8.970;2022-11-18T05:37:26;1.60;;;0.22;;
5343;SDS011;2694;48.950;8.970;2022-11-18T05:39:54;0.80;;;0.30;;
5343;SDS011;2694;48.950;8.970;2022-11-18T05:42:23;1.23;;;0.40;;
5343;SDS011;2694;48.950;8.970;2022-11-18T05:45:08;1.60;;;0.60;;
5343;SDS011;2694;48.950;8.970;2022-11-18T05:47:35;2.83;;;0.40;;
5343;SDS011;2694;48.950;8.970;2022-11-18T05:50:23;0.73;;;0.30;;
5343;SDS011;2694;48.950;8.970;2022-11-18T05:52:50;0.50;;;0.30;;
5343;SDS011;2694;48.950;8.970;2022-11-18T05:55:17;1.73;;;0.50;;
5343;SDS011;2694;48.950;8.970;2022-11-18T05:57:47;1.42;;;0.65;;
5343;SDS011;2694;48.950;8.970;2022-11-18T06:00:14;1.10;;;0.60;;
5343;SDS011;2694;48.950;8.970;2022-11-18T06:02:42;1.20;;;0.50;;
5343;SDS011;2694;48.950;8.970;2022-11-18T06:05:11;3.72;;;0.70;;
5343;SDS011;2694;48.950;8.970;2022-11-18T06:07:40;0.90;;;0.70;;
5343;SDS011;2694;48.950;8.970;2022-11-18T06:10:08;1.25;;;0.65;;
5343;SDS011;2694;48.950;8.970;2022-11-18T06:12:37;1.77;;;0.50;;
5343;SDS011;2694;48.950;8.970;2022-11-18T06:15:10;1.20;;;0.70;;
5343;SDS011;2694;48.950;8.970;2022-11-18T06:17:44;1.10;;;0.47;;
5343;SDS011;2694;48.950;8.970;2022-11-18T06:20:15;2.30;;;0.68;;
5343;SDS011;2694;48.950;8.970;2022-11-18T06:22:43;0.90;;;0.50;;
5343;SDS011;2694;48.950;8.970;2022-11-18T06:25:11;3.35;;;0.90;;
5343;SDS011;2694;48.950;8.970;2022-11-18T06:27:39;1.98;;;0.50;;
5343;SDS011;2694;48.950;8.970;2022-11-18T06:30:08;1.00;;;0.60;;
5343;SDS011;2694;48.950;8.970;2022-11-18T06:32:38;1.87;;;0.70;;
5343;SDS011;2694;48.950;8.970;2022-11-18T06:35:06;1.70;;;0.50;;
5343;SDS011;2694;48.950;8.970;2022-11-18T06:37:34;2.70;;;0.60;;
5343;SDS011;2694;48.950;8.970;2022-11-18T06:40:01;1.00;;;0.30;;
5343;SDS011;2694;48.950;8.970;2022-11-18T06:42:29;0.90;;;0.50;;
5343;SDS011;2694;48.950;8.970;2022-11-18T06:45:15;2.50;;;0.70;;
5343;SDS011;2694;48.950;8.970;2022-11-18T06:47:42;0.80;;;0.50;;
5343;SDS011;2694;48.950;8.970;2022-11-18T06:50:08;2.10;;;0.40;;
5343;SDS011;2694;48.950;8.970;2022-11-18T06:52:36;1.43;;;0.60;;
5343;SDS011;2694;48.950;8.970;2022-11-18T06:55:03;1.80;;;0.70;;
5343;SDS011;2694;48.950;8.970;2022-11-18T06:57:32;2.40;;;0.40;;
5343;SDS011;2694;48.950;8.970;2022-11-18T06:59:59;1.00;;;0.50;;
5343;SDS011;2694;48.950;8.970;2022-11-18T07:02:28;0.90;;;0.40;;
5343;SDS011;2694;48.950;8.970;2022-11-18T07:04:55;0.70;;;0.30;;
5343;SDS011;2694;48.950;8.970;2022-11-18T07:07:22;0.60;;;0.30;;
5343;SDS011;2694;48.950;8.970;2022-11-18T07:09:50;1.10;;;0.30;;
5343;SDS011;2694;48.950;8.970;2022-11-18T07:12:17;1.10;;;0.40;;
5343;SDS011;2694;48.950;8.970;2022-11-18T07:14:44;0.70;;;0.40;;
5343;SDS011;2694;48.950;8.970;2022-11-18T07:17:11;0.80;;;0.40;;
5343;SDS011;2694;48.950;8.970;2022-11-18T07:19:40;0.90;;;0.45;;
5343;SDS011;2694;48.950;8.970;2022-11-18T07:22:07;1.47;;;0.37;;
5343;SDS011;2694;48.950;8.970;2022-11-18T07:24:34;0.80;;;0.30;;
5343;SDS011;2694;48.950;8.970;2022-11-18T07:27:02;0.90;;;0.40;;
5343;SDS011;2694;48.950;8.970;2022-11-18T07:29:29;0.47;;;0.30;;
5343;SDS011;2694;48.950;8.970;2022-11-18T07:31:56;1.60;;;0.30;;
5343;SDS011;2694;48.950;8.970;2022-11-18T07:34:23;1.40;;;0.47;;
5343;SDS011;2694;48.950;8.970;2022-11-18T07:36:52;2.40;;;0.40;;
5343;SDS011;2694;48.950;8.970;2022-11-18T07:39:19;1.50;;;0.50;;
5343;SDS011;2694;48.950;8.970;2022-11-18T07:41:47;0.90;;;0.43;;
5343;SDS011;2694;48.950;8.970;2022-11-18T07:44:14;2.30;;;0.70;;
5343;SDS011;2694;48.950;8.970;2022-11-18T07:46:41;2.60;;;0.80;;
5343;SDS011;2694;48.950;8.970;2022-11-18T07:49:09;1.70;;;0.70;;
5343;SDS011;2694;48.950;8.970;2022-11-18T07:51:37;2.00;;;0.93;;
5343;SDS011;2694;48.950;8.970;2022-11-18T07:54:07;2.97;;;1.08;;
5343;SDS011;2694;48.950;8.970;2022-11-18T07:56:36;0.80;;;0.60;;
5343;SDS011;2694;48.950;8.970;2022-11-18T07:59:03;1.40;;;0.50;;
5343;SDS011;2694;48.950;8.970;2022-11-18T08:01:30;2.80;;;0.40;;
5343;SDS011;2694;48.950;8.970;2022-11-18T08:04:02;0.50;;;0.40;;
5343;SDS011;2694;48.950;8.970;2022-11-18T08:06:31;0.80;;;0.40;;
5343;SDS011;2694;48.950;8.970;2022-11-18T08:08:59;1.92;;;0.35;;
5343;SDS011;2694;48.950;8.970;2022-11-18T08:11:28;1.40;;;0.50;;
5343;SDS011;2694;48.950;8.970;2022-11-18T08:13:55;0.98;;;0.60;;
5343;SDS011;2694;48.950;8.970;2022-11-18T08:16:23;1.77;;;0.50;;
5343;SDS011;2694;48.950;8.970;2022-11-18T08:18:51;1.90;;;0.50;;
5343;SDS011;2694;48.950;8.970;2022-11-18T08:21:19;1.17;;;0.53;;
5343;SDS011;2694;48.950;8.970;2022-11-18T08:23:50;0.82;;;0.40;;
5343;SDS011;2694;48.950;8.970;2022-11-18T08:26:19;2.20;;;0.77;;
5343;SDS011;2694;48.950;8.970;2022-11-18T08:28:48;2.65;;;0.80;;
5343;SDS011;2694;48.950;8.970;2022-11-18T08:31:16;2.15;;;0.52;;
5343;SDS011;2694;48.950;8.970;2022-11-18T08:33:45;0.90;;;0.40;;
5343;SDS011;2694;48.950;8.970;2022-11-18T08:36:13;1.35;;;0.60;;
5343;SDS011;2694;48.950;8.970;2022-11-18T08:38:41;2.70;;;0.40;;
5343;SDS011;2694;48.950;8.970;2022-11-18T08:41:10;1.55;;;0.60;;
5343;SDS011;2694;48.950;8.970;2022-11-18T08:43:38;0.52;;;0.30;;
5343;SDS011;2694;48.950;8.970;2022-11-18T08:46:06;2.35;;;0.40;;
5343;SDS011;2694;48.950;8.970;2022-11-18T08:48:34;0.50;;;0.30;;
5343;SDS011;2694;48.950;8.970;2022-11-18T08:51:01;2.13;;;0.60;;
5343;SDS011;2694;48.950;8.970;2022-11-18T08:53:29;1.10;;;0.40;;
5343;SDS011;2694;48.950;8.970;2022-11-18T08:55:57;1.60;;;0.60;;
5343;SDS011;2694;48.950;8.970;2022-11-18T08:58:25;1.17;;;0.70;;
5343;SDS011;2694;48.950;8.970;2022-11-18T09:00:53;2.10;;;0.80;;
5343;SDS011;2694;48.950;8.970;2022-11-18T09:03:21;1.10;;;0.60;;
5343;SDS011;2694;48.950;8.970;2022-11-18T09:05:49;1.05;;;0.40;;
5343;SDS011;2694;48.950;8.970;2022-11-18T09:08:16;1.50;;;0.70;;
5343;SDS011;2694;48.950;8.970;2022-11-18T09:10:44;1.15;;;0.80;;
5343;SDS011;2694;48.950;8.970;2022-11-18T09:13:11;3.00;;;0.80;;
5343;SDS011;2694;48.950;8.970;2022-11-18T09:15:38;1.50;;;0.60;;
5343;SDS011;2694;48.950;8.970;2022-11-18T09:18:05;1.20;;;0.70;;
5343;SDS011;2694;48.950;8.970;2022-11-18T09:20:35;4.17;;;1.90;;
5343;SDS011;2694;48.950;8.970;2022-11-18T09:23:02;2.72;;;0.90;;
5343;SDS011;2694;48.950;8.970;2022-11-18T09:25:29;1.65;;;0.70;;
5343;SDS011;2694;48.950;8.970;2022-11-18T09:27:56;2.10;;;0.77;;
5343;SDS011;2694;48.950;8.970;2022-11-18T09:30:25;1.30;;;0.90;;
5343;SDS011;2694;48.950;8.970;2022-11-18T09:32:52;1.40;;;1.00;;
5343;SDS011;2694;48.950;8.970;2022-11-18T09:35:19;1.92;;;0.80;;
5343;SDS011;2694;48.950;8.970;2022-11-18T09:37:48;1.80;;;0.90;;
5343;SDS011;2694;48.950;8.970;2022-11-18T09:40:16;2.30;;;0.90;;
5343;SDS011;2694;48.950;8.970;2022-11-18T09:42:48;1.67;;;0.70;;
5343;SDS011;2694;48.950;8.970;2022-11-18T09:45:23;1.80;;;0.70;;
5343;SDS011;2694;48.950;8.970;2022-11-18T09:47:54;0.68;;;0.57;;
5343;SDS011;2694;48.950;8.970;2022-11-18T09:50:24;2.00;;;0.80;;
5343;SDS011;2694;48.950;8.970;2022-11-18T09:52:59;1.97;;;1.00;;
5343;SDS011;2694;48.950;8.970;2022-11-18T09:55:35;1.17;;;1.08;;
5343;SDS011;2694;48.950;8.970;2022-11-18T09:58:05;4.47;;;1.60;;
5343;SDS011;2694;48.950;8.970;2022-11-18T10:00:33;7.80;;;1.48;;
5343;SDS011;2694;48.950;8.970;2022-11-18T10:03:01;2.80;;;1.30;;
5343;SDS011;2694;48.950;8.970;2022-11-18T10:05:32;1.57;;;1.40;;
5343;SDS011;2694;48.950;8.970;2022-11-18T10:08:17;2.47;;;1.50;;
5343;SDS011;2694;48.950;8.970;2022-11-18T10:10:50;2.80;;;1.50;;
5343;SDS011;2694;48.950;8.970;2022-11-18T10:13:26;2.00;;;1.23;;
5343;SDS011;2694;48.950;8.970;2022-11-18T10:16:07;3.22;;;1.70;;
5343;SDS011;2694;48.950;8.970;2022-11-18T10:18:46;3.03;;;1.85;;
5343;SDS011;2694;48.950;8.970;2022-11-18T10:21:22;3.40;;;1.73;;
5343;SDS011;2694;48.950;8.970;2022-11-18T10:23:58;2.67;;;2.00;;
5343;SDS011;2694;48.950;8.970;2022-11-18T10:26:33;4.32;;;1.60;;
5343;SDS011;2694;48.950;8.970;2022-11-18T10:29:01;2.90;;;1.00;;
5343;SDS011;2694;48.950;8.970;2022-11-18T10:31:31;4.50;;;1.60;;
5343;SDS011;2694;48.950;8.970;2022-11-18T10:34:02;3.90;;;1.87;;
5343;SDS011;2694;48.950;8.970;2022-11-18T10:36:29;6.15;;;2.20;;
5343;SDS011;2694;48.950;8.970;2022-11-18T10:39:10;4.30;;;2.20;;
5343;SDS011;2694;48.950;8.970;2022-11-18T10:41:40;2.60;;;1.80;;
5343;SDS011;2694;48.950;8.970;2022-11-18T10:44:34;5.18;;;2.50;;
5343;SDS011;2694;48.950;8.970;2022-11-18T10:47:13;4.85;;;2.65;;
5343;SDS011;2694;48.950;8.970;2022-11-18T10:49:51;7.25;;;3.10;;
5343;SDS011;2694;48.950;8.970;2022-11-18T10:52:20;3.00;;;2.40;;
5343;SDS011;2694;48.950;8.970;2022-11-18T10:57:46;3.15;;;1.95;;
5343;SDS011;2694;48.950;8.970;2022-11-18T11:00:31;2.75;;;1.83;;
5343;SDS011;2694;48.950;8.970;2022-11-18T11:03:23;3.85;;;1.77;;
5343;SDS011;2694;48.950;8.970;2022-11-18T11:08:45;4.93;;;1.40;;
5343;SDS011;2694;48.950;8.970;2022-11-18T11:11:20;2.92;;;1.73;;
5343;SDS011;2694;48.950;8.970;2022-11-18T11:14:15;2.70;;;1.30;;
5343;SDS011;2694;48.950;8.970;2022-11-18T11:16:49;2.30;;;1.40;;
5343;SDS011;2694;48.950;8.970;2022-11-18T11:19:33;2.33;;;1.45;;
5343;SDS011;2694;48.950;8.970;2022-11-18T11:22:07;2.97;;;1.50;;
5343;SDS011;2694;48.950;8.970;2022-11-18T11:24:36;3.28;;;1.60;;
5343;SDS011;2694;48.950;8.970;2022-11-18T11:27:09;3.28;;;1.38;;
5343;SDS011;2694;48.950;8.970;2022-11-18T11:29:52;3.70;;;1.40;;
5343;SDS011;2694;48.950;8.970;2022-11-18T11:32:31;1.30;;;1.00;;
5343;SDS011;2694;48.950;8.970;2022-11-18T11:35:10;4.13;;;1.98;;
5343;SDS011;2694;48.950;8.970;2022-11-18T11:37:45;4.22;;;1.90;;
5343;SDS011;2694;48.950;8.970;2022-11-18T11:40:28;3.53;;;1.58;;
5343;SDS011;2694;48.950;8.970;2022-11-18T11:43:04;5.43;;;1.80;;
5343;SDS011;2694;48.950;8.970;2022-11-18T11:45:43;6.40;;;1.70;;
5343;SDS011;2694;48.950;8.970;2022-11-18T11:48:23;3.42;;;1.00;;
5343;SDS011;2694;48.950;8.970;2022-11-18T11:51:00;2.20;;;1.23;;
5343;SDS011;2694;48.950;8.970;2022-11-18T11:53:43;2.10;;;1.30;;
5343;SDS011;2694;48.950;8.970;2022-11-18T11:56:20;1.77;;;1.10;;
5343;SDS011;2694;48.950;8.970;2022-11-18T11:59:11;2.55;;;1.30;;
5343;SDS011;2694;48.950;8.970;2022-11-18T12:01:51;2.90;;;1.30;;
5343;SDS011;2694;48.950;8.970;2022-11-18T12:04:30;4.43;;;1.02;;
5343;SDS011;2694;48.950;8.970;2022-11-18T12:07:04;2.03;;;1.00;;
5343;SDS011;2694;48.950;8.970;2022-11-18T12:09:42;2.95;;;0.70;;
5343;SDS011;2694;48.950;8.970;2022-11-18T12:12:20;3.87;;;1.00;;
5343;SDS011;2694;48.950;8.970;2022-11-18T12:15:05;2.30;;;1.05;;
5343;SDS011;2694;48.950;8.970;2022-11-18T12:17:42;2.00;;;0.90;;
5343;SDS011;2694;48.950;8.970;2022-11-18T12:20:39;4.43;;;1.30;;
5343;SDS011;2694;48.950;8.970;2022-11-18T12:23:19;4.68;;;1.50;;
5343;SDS011;2694;48.950;8.970;2022-11-18T12:25:54;3.78;;;1.90;;
5343;SDS011;2694;48.950;8.970;2022-11-18T12:28:26;4.28;;;1.30;;
5343;SDS011;2694;48.950;8.970;2022-11-18T12:34:03;7.07;;;1.40;;
5343;SDS011;2694;48.950;8.970;2022-11-18T12:36:43;9.32;;;3.10;;
5343;SDS011;2694;48.950;8.970;2022-11-18T12:45:43;4.60;;;1.58;;
5343;SDS011;2694;48.950;8.970;2022-11-18T12:48:35;4.65;;;1.50;;
5343;SDS011;2694;48.950;8.970;2022-11-18T12:54:14;5.37;;;1.00;;
5343;SDS011;2694;48.950;8.970;2022-11-18T12:56:51;6.78;;;1.48;;
5343;SDS011;2694;48.950;8.970;2022-11-18T12:59:25;4.88;;;1.10;;
5343;SDS011;2694;48.950;8.970;2022-11-18T13:02:04;2.70;;;1.05;;
5343;SDS011;2694;48.950;8.970;2022-11-18T13:07:30;3.13;;;1.20;;
5343;SDS011;2694;48.950;8.970;2022-11-18T13:10:19;5.90;;;1.27;;
5343;SDS011;2694;48.950;8.970;2022-11-18T13:12:48;5.53;;;1.60;;
5343;SDS011;2694;48.950;8.970;2022-11-18T13:15:17;6.72;;;1.42;;
5343;SDS011;2694;48.950;8.970;2022-11-18T13:18:05;5.80;;;2.00;;
5343;SDS011;2694;48.950;8.970;2022-11-18T13:20:38;4.25;;;1.52;;
5343;SDS011;2694;48.950;8.970;2022-11-18T13:23:21;3.90;;;2.00;;
5343;SDS011;2694;48.950;8.970;2022-11-18T13:26:11;4.38;;;1.77;;
5343;SDS011;2694;48.950;8.970;2022-11-18T13:28:43;4.95;;;2.60;;
5343;SDS011;2694;48.950;8.970;2022-11-18T13:31:21;1.92;;;1.23;;
5343;SDS011;2694;48.950;8.970;2022-11-18T13:33:52;4.97;;;1.00;;
5343;SDS011;2694;48.950;8.970;2022-11-18T13:36:22;3.15;;;0.80;;
5343;SDS011;2694;48.950;8.970;2022-11-18T13:38:54;3.75;;;0.90;;
5343;SDS011;2694;48.950;8.970;2022-11-18T13:41:26;1.65;;;1.00;;
5343;SDS011;2694;48.950;8.970;2022-11-18T13:46:42;2.67;;;0.70;;
5343;SDS011;2694;48.950;8.970;2022-11-18T13:49:13;2.63;;;1.65;;
5343;SDS011;2694;48.950;8.970;2022-11-18T13:51:46;5.60;;;1.30;;
5343;SDS011;2694;48.950;8.970;2022-11-18T13:54:16;7.20;;;1.02;;
5343;SDS011;2694;48.950;8.970;2022-11-18T13:56:47;1.83;;;1.10;;
5343;SDS011;2694;48.950;8.970;2022-11-18T13:59:15;2.35;;;1.10;;
5343;SDS011;2694;48.950;8.970;2022-11-18T14:01:45;1.80;;;0.90;;
5343;SDS011;2694;48.950;8.970;2022-11-18T14:04:19;4.37;;;0.90;;
5343;SDS011;2694;48.950;8.970;2022-11-18T14:06:49;2.25;;;1.10;;
5343;SDS011;2694;48.950;8.970;2022-11-18T14:09:18;2.72;;;1.20;;
5343;SDS011;2694;48.950;8.970;2022-11-18T14:11:59;5.20;;;1.40;;
5343;SDS011;2694;48.950;8.970;2022-11-18T14:14:28;4.03;;;1.00;;
5343;SDS011;2694;48.950;8.970;2022-11-18T14:17:04;2.10;;;1.00;;
5343;SDS011;2694;48.950;8.970;2022-11-18T14:19:41;5.10;;;2.00;;
5343;SDS011;2694;48.950;8.970;2022-11-18T14:22:12;4.90;;;1.67;;
5343;SDS011;2694;48.950;8.970;2022-11-18T14:24:41;2.90;;;1.20;;
5343;SDS011;2694;48.950;8.970;2022-11-18T14:30:28;2.35;;;1.30;;
5343;SDS011;2694;48.950;8.970;2022-11-18T14:33:13;2.40;;;1.50;;
5343;SDS011;2694;48.950;8.970;2022-11-18T14:35:47;4.13;;;1.70;;
5343;SDS011;2694;48.950;8.970;2022-11-18T14:38:17;6.00;;;1.80;;
5343;SDS011;2694;48.950;8.970;2022-11-18T14:40:52;3.72;;;2.15;;
5343;SDS011;2694;48.950;8.970;2022-11-18T14:43:21;5.70;;;1.80;;
5343;SDS011;2694;48.950;8.970;2022-11-18T14:45:48;6.88;;;1.95;;
5343;SDS011;2694;48.950;8.970;2022-11-18T14:48:17;4.43;;;1.67;;
5343;SDS011;2694;48.950;8.970;2022-11-18T14:50:50;4.05;;;2.00;;
5343;SDS011;2694;48.950;8.970;2022-11-18T14:56:02;6.03;;;2.58;;
5343;SDS011;2694;48.950;8.970;2022-11-18T14:58:29;5.55;;;2.08;;
5343;SDS011;2694;48.950;8.970;2022-11-18T15:00:58;5.88;;;2.10;;
5343;SDS011;2694;48.950;8.970;2022-11-18T15:03:25;4.55;;;2.60;;
5343;SDS011;2694;48.950;8.970;2022-11-18T15:05:53;5.38;;;2.17;;
5343;SDS011;2694;48.950;8.970;2022-11-18T15:08:20;6.37;;;2.20;;
5343;SDS011;2694;48.950;8.970;2022-11-18T15:10:49;6.35;;;2.45;;
5343;SDS011;2694;48.950;8.970;2022-11-18T15:13:16;6.93;;;1.70;;
5343;SDS011;2694;48.950;8.970;2022-11-18T15:15:43;2.75;;;1.90;;
5343;SDS011;2694;48.950;8.970;2022-11-18T15:18:12;3.83;;;2.10;;
5343;SDS011;2694;48.950;8.970;2022-11-18T15:20:39;3.00;;;1.42;;
5343;SDS011;2694;48.950;8.970;2022-11-18T15:23:06;5.90;;;1.90;;
5343;SDS011;2694;48.950;8.970;2022-11-18T15:25:34;3.88;;;1.90;;
5343;SDS011;2694;48.950;8.970;2022-11-18T15:28:07;7.38;;;2.17;;
5343;SDS011;2694;48.950;8.970;2022-11-18T15:30:36;4.93;;;2.20;;
5343;SDS011;2694;48.950;8.970;2022-11-18T15:33:06;13.87;;;3.07;;
5343;SDS011;2694;48.950;8.970;2022-11-18T15:35:33;7.32;;;2.75;;
5343;SDS011;2694;48.950;8.970;2022-11-18T15:38:00;5.25;;;2.50;;
5343;SDS011;2694;48.950;8.970;2022-11-18T15:40:28;7.30;;;2.67;;
5343;SDS011;2694;48.950;8.970;2022-11-18T15:42:55;5.10;;;2.70;;
5343;SDS011;2694;48.950;8.970;2022-11-18T15:45:24;9.55;;;2.67;;
5343;SDS011;2694;48.950;8.970;2022-11-18T15:47:51;12.33;;;3.10;;
5343;SDS011;2694;48.950;8.970;2022-11-18T15:50:18;6.65;;;3.25;;
5343;SDS011;2694;48.950;8.970;2022-11-18T15:52:46;8.00;;;3.83;;
5343;SDS011;2694;48.950;8.970;2022-11-18T15:55:13;9.75;;;4.00;;
5343;SDS011;2694;48.950;8.970;2022-11-18T15:57:41;9.77;;;3.92;;
5343;SDS011;2694;48.950;8.970;2022-11-18T16:00:09;9.05;;;4.20;;
5343;SDS011;2694;48.950;8.970;2022-11-18T16:02:38;8.20;;;4.10;;
5343;SDS011;2694;48.950;8.970;2022-11-18T16:05:06;9.90;;;4.32;;
5343;SDS011;2694;48.950;8.970;2022-11-18T16:07:34;9.53;;;4.10;;
5343;SDS011;2694;48.950;8.970;2022-11-18T16:10:01;10.10;;;3.67;;